sensor_id;sensor_type;location;lat;lon;timestamp;pressure;altitude;pressure_sealevel;temperature;humidity
38780;BME280;29273;49.962;9.768;2024-03-06T00:00:47;99842.66;;;11.35;59.66
38780;BME280;29273;49.962;9.768;2024-03-06T00:03:12;99842.88;;;11.34;59.55
38780;BME280;29273;49.962;9.768;2024-03-06T00:05:38;99843.91;;;11.33;59.65
38780;BME280;29273;49.962;9.768;2024-03-06T00:08:03;99839.41;;;11.33;59.70
38780;BME280;29273;49.962;9.768;2024-03-06T00:10:29;99844.72;;;11.33;59.65
38780;BME280;29273;49.962;9.768;2024-03-06T00:12:55;99844.72;;;11.33;59.65
38780;BME280;29273;49.962;9.768;2024-03-06T00:15:20;99837.78;;;11.32;59.59
38780;BME280;29273;49.962;9.768;2024-03-06T00:17:46;99836.16;;;11.31;59.52
38780;BME280;29273;49.962;9.768;2024-03-06T00:20:12;99840.41;;;11.32;59.74
38780;BME280;29273;49.962;9.768;2024-03-06T00:22:37;99842.25;;;11.32;59.63
38780;BME280;29273;49.962;9.768;2024-03-06T00:25:03;99845.72;;;11.32;59.52
38780;BME280;29273;49.962;9.768;2024-03-06T00:27:29;99840.41;;;11.32;59.61
38780;BME280;29273;49.962;9.768;2024-03-06T00:29:54;99849.41;;;11.31;59.62
38780;BME280;29273;49.962;9.768;2024-03-06T00:32:19;99847.78;;;11.30;59.34
38780;BME280;29273;49.962;9.768;2024-03-06T00:34:45;99846.97;;;11.29;59.54
38780;BME280;29273;49.962;9.768;2024-03-06T00:37:10;99856.72;;;11.29;59.56
38780;BME280;29273;49.962;9.768;2024-03-06T00:39:36;99848.19;;;11.27;59.51
38780;BME280;29273;49.962;9.768;2024-03-06T00:42:02;99856.72;;;11.29;59.42
38780;BME280;29273;49.962;9.768;2024-03-06T00:44:27;99852.47;;;11.28;59.42
38780;BME280;29273;49.962;9.768;2024-03-06T00:46:53;99850.03;;;11.26;59.49
38780;BME280;29273;49.962;9.768;2024-03-06T00:49:18;99863.47;;;11.25;59.48
38780;BME280;29273;49.962;9.768;2024-03-06T00:51:43;99859.19;;;11.24;59.37
38780;BME280;29273;49.962;9.768;2024-03-06T00:54:09;99868.19;;;11.23;59.61
38780;BME280;29273;49.962;9.768;2024-03-06T00:56:38;99872.03;;;11.27;59.06
38780;BME280;29273;49.962;9.768;2024-03-06T00:59:04;99865.72;;;11.21;59.84
38780;BME280;29273;49.962;9.768;2024-03-06T01:01:30;99868.78;;;11.18;59.66
38780;BME280;29273;49.962;9.768;2024-03-06T01:03:55;99874.09;;;11.18;59.67
38780;BME280;29273;49.962;9.768;2024-03-06T01:06:20;99880.19;;;11.19;59.64
38780;BME280;29273;49.962;9.768;2024-03-06T01:08:46;99882.25;;;11.17;59.65
38780;BME280;29273;49.962;9.768;2024-03-06T01:11:11;99889.38;;;11.16;59.61
38780;BME280;29273;49.962;9.768;2024-03-06T01:13:40;99890.19;;;11.17;59.55
38780;BME280;29273;49.962;9.768;2024-03-06T01:16:06;99892.22;;;11.15;59.41
38780;BME280;29273;49.962;9.768;2024-03-06T01:18:32;99887.94;;;11.14;59.67
38780;BME280;29273;49.962;9.768;2024-03-06T01:20:58;99893.25;;;11.14;59.65
38780;BME280;29273;49.962;9.768;2024-03-06T01:23:23;99890.78;;;11.12;59.85
38780;BME280;29273;49.962;9.768;2024-03-06T01:25:48;99895.28;;;11.11;59.71
38780;BME280;29273;49.962;9.768;2024-03-06T01:28:14;99890.19;;;11.10;59.73
38780;BME280;29273;49.962;9.768;2024-03-06T01:30:40;99891.81;;;11.11;59.85
38780;BME280;29273;49.962;9.768;2024-03-06T01:33:05;99891.81;;;11.11;59.62
38780;BME280;29273;49.962;9.768;2024-03-06T01:35:31;99890.19;;;11.10;59.49
38780;BME280;29273;49.962;9.768;2024-03-06T01:37:57;99894.69;;;11.09;59.52
38780;BME280;29273;49.962;9.768;2024-03-06T01:40:23;99899.78;;;11.11;59.66
38780;BME280;29273;49.962;9.768;2024-03-06T01:42:49;99896.50;;;11.09;59.60
38780;BME280;29273;49.962;9.768;2024-03-06T01:45:15;99893.22;;;11.07;59.53
38780;BME280;29273;49.962;9.768;2024-03-06T01:47:40;99898.53;;;11.07;59.71
38780;BME280;29273;49.962;9.768;2024-03-06T01:50:06;99897.13;;;11.04;59.62
38780;BME280;29273;49.962;9.768;2024-03-06T01:52:35;99897.94;;;11.05;59.65
38780;BME280;29273;49.962;9.768;2024-03-06T01:55:01;99897.31;;;11.03;59.80
38780;BME280;29273;49.962;9.768;2024-03-06T01:57:27;99891.41;;;11.01;59.81
38780;BME280;29273;49.962;9.768;2024-03-06T01:59:53;99903.63;;;11.02;59.82
38780;BME280;29273;49.962;9.768;2024-03-06T02:02:19;99910.56;;;11.03;59.73
38780;BME280;29273;49.962;9.768;2024-03-06T02:04:45;99915.28;;;11.01;59.95
38780;BME280;29273;49.962;9.768;2024-03-06T02:07:12;99909.53;;;11.04;59.63
38780;BME280;29273;49.962;9.768;2024-03-06T02:09:39;99912.38;;;11.02;59.87
38780;BME280;29273;49.962;9.768;2024-03-06T02:12:05;99912.63;;;11.01;59.85
38780;BME280;29273;49.962;9.768;2024-03-06T02:14:34;99911.78;;;11.00;59.72
38780;BME280;29273;49.962;9.768;2024-03-06T02:17:00;99904.03;;;10.99;59.65
38780;BME280;29273;49.962;9.768;2024-03-06T02:19:37;99911.56;;;11.02;58.93
38780;BME280;29273;49.962;9.768;2024-03-06T02:22:03;99912.38;;;10.96;59.71
38780;BME280;29273;49.962;9.768;2024-03-06T02:24:28;99911.78;;;10.93;59.97
38780;BME280;29273;49.962;9.768;2024-03-06T02:26:53;99898.72;;;10.92;59.75
38780;BME280;29273;49.962;9.768;2024-03-06T02:29:19;99904.03;;;10.92;59.99
38780;BME280;29273;49.962;9.768;2024-03-06T02:31:44;99902.41;;;10.91;59.98
38780;BME280;29273;49.962;9.768;2024-03-06T02:34:10;99906.06;;;10.90;59.90
38780;BME280;29273;49.962;9.768;2024-03-06T02:36:35;99905.44;;;10.88;60.07
38780;BME280;29273;49.962;9.768;2024-03-06T02:39:01;99913.41;;;10.88;60.19
38780;BME280;29273;49.962;9.768;2024-03-06T02:41:27;99908.09;;;10.88;60.10
38780;BME280;29273;49.962;9.768;2024-03-06T02:43:52;99906.66;;;10.85;60.01
38780;BME280;29273;49.962;9.768;2024-03-06T02:46:18;99910.94;;;10.86;60.22
38780;BME280;29273;49.962;9.768;2024-03-06T02:48:43;99910.16;;;10.86;60.22
38780;BME280;29273;49.962;9.768;2024-03-06T02:51:08;99912.78;;;10.86;60.00
38780;BME280;29273;49.962;9.768;2024-03-06T02:53:34;99908.31;;;10.86;60.11
38780;BME280;29273;49.962;9.768;2024-03-06T02:55:59;99899.53;;;10.86;60.31
38780;BME280;29273;49.962;9.768;2024-03-06T02:58:25;99896.66;;;10.87;60.22
38780;BME280;29273;49.962;9.768;2024-03-06T03:00:50;99901.16;;;10.87;60.10
38780;BME280;29273;49.962;9.768;2024-03-06T03:03:16;99905.44;;;10.88;60.00
38780;BME280;29273;49.962;9.768;2024-03-06T03:05:41;99900.34;;;10.86;59.59
38780;BME280;29273;49.962;9.768;2024-03-06T03:08:07;99906.47;;;10.87;59.80
38780;BME280;29273;49.962;9.768;2024-03-06T03:10:33;99909.09;;;10.87;59.83
38780;BME280;29273;49.962;9.768;2024-03-06T03:13:01;99908.50;;;10.85;59.83
38780;BME280;29273;49.962;9.768;2024-03-06T03:15:27;99905.03;;;10.84;60.00
38780;BME280;29273;49.962;9.768;2024-03-06T03:17:53;99904.41;;;10.82;60.19
38780;BME280;29273;49.962;9.768;2024-03-06T03:20:18;99902.59;;;10.83;59.96
38780;BME280;29273;49.962;9.768;2024-03-06T03:22:44;99907.06;;;10.82;59.83
38780;BME280;29273;49.962;9.768;2024-03-06T03:25:10;99907.06;;;10.82;59.88
38780;BME280;29273;49.962;9.768;2024-03-06T03:27:38;99897.28;;;10.83;59.74
38780;BME280;29273;49.962;9.768;2024-03-06T03:30:08;99900.75;;;10.83;59.73
38780;BME280;29273;49.962;9.768;2024-03-06T03:32:34;99900.53;;;10.78;59.58
38780;BME280;29273;49.962;9.768;2024-03-06T03:34:59;99905.84;;;10.78;59.66
38780;BME280;29273;49.962;9.768;2024-03-06T03:37:25;99900.72;;;10.77;59.14
38780;BME280;29273;49.962;9.768;2024-03-06T03:39:50;99900.31;;;10.73;59.29
38780;BME280;29273;49.962;9.768;2024-03-06T03:42:16;99904.38;;;10.69;59.11
38780;BME280;29273;49.962;9.768;2024-03-06T03:44:41;99901.50;;;10.64;59.11
38780;BME280;29273;49.962;9.768;2024-03-06T03:47:07;99894.59;;;10.56;58.66
38780;BME280;29273;49.962;9.768;2024-03-06T03:49:32;99900.28;;;10.53;58.64
38780;BME280;29273;49.962;9.768;2024-03-06T03:51:58;99903.69;;;10.47;58.57
38780;BME280;29273;49.962;9.768;2024-03-06T03:54:23;99894.72;;;10.41;58.57
38780;BME280;29273;49.962;9.768;2024-03-06T03:56:49;99896.31;;;10.35;59.04
38780;BME280;29273;49.962;9.768;2024-03-06T03:59:15;99897.09;;;10.29;58.94
38780;BME280;29273;49.962;9.768;2024-03-06T04:01:40;99898.50;;;10.25;58.75
38780;BME280;29273;49.962;9.768;2024-03-06T04:04:06;99905.22;;;10.21;58.86
38780;BME280;29273;49.962;9.768;2024-03-06T04:06:33;99909.25;;;10.17;58.55
38780;BME280;29273;49.962;9.768;2024-03-06T04:08:59;99911.47;;;10.13;58.72
38780;BME280;29273;49.962;9.768;2024-03-06T04:11:24;99916.34;;;10.10;59.13
38780;BME280;29273;49.962;9.768;2024-03-06T04:13:50;99915.94;;;10.06;58.93
38780;BME280;29273;49.962;9.768;2024-03-06T04:16:16;99915.28;;;10.04;58.92
38780;BME280;29273;49.962;9.768;2024-03-06T04:18:43;99920.16;;;10.00;58.98
38780;BME280;29273;49.962;9.768;2024-03-06T04:21:08;99919.72;;;9.97;58.93
38780;BME280;29273;49.962;9.768;2024-03-06T04:23:35;99928.03;;;9.94;58.89
38780;BME280;29273;49.962;9.768;2024-03-06T04:26:02;99924.78;;;9.92;59.05
38780;BME280;29273;49.962;9.768;2024-03-06T04:28:27;99931.31;;;9.89;59.05
38780;BME280;29273;49.962;9.768;2024-03-06T04:30:53;99940.22;;;9.88;59.13
38780;BME280;29273;49.962;9.768;2024-03-06T04:33:18;99936.53;;;9.82;59.15
38780;BME280;29273;49.962;9.768;2024-03-06T04:35:44;99936.94;;;9.79;59.16
38780;BME280;29273;49.962;9.768;2024-03-06T04:38:09;99941.56;;;9.77;59.24
38780;BME280;29273;49.962;9.768;2024-03-06T04:40:35;99940.94;;;9.75;59.21
38780;BME280;29273;49.962;9.768;2024-03-06T04:43:01;99947.28;;;9.74;59.29
38780;BME280;29273;49.962;9.768;2024-03-06T04:45:27;99960.69;;;9.73;59.31
38780;BME280;29273;49.962;9.768;2024-03-06T04:47:53;99961.69;;;9.72;59.50
38780;BME280;29273;49.962;9.768;2024-03-06T04:50:18;99965.31;;;9.71;59.58
38780;BME280;29273;49.962;9.768;2024-03-06T04:52:44;99971.03;;;9.68;59.72
38780;BME280;29273;49.962;9.768;2024-03-06T04:55:12;99980.56;;;9.69;59.72
38780;BME280;29273;49.962;9.768;2024-03-06T04:57:42;99978.78;;;9.69;59.86
38780;BME280;29273;49.962;9.768;2024-03-06T05:00:10;99984.69;;;9.71;59.89
38780;BME280;29273;49.962;9.768;2024-03-06T05:02:36;99984.50;;;9.73;59.73
38780;BME280;29273;49.962;9.768;2024-03-06T05:05:03;99992.22;;;9.74;59.93
38780;BME280;29273;49.962;9.768;2024-03-06T05:07:29;100001.78;;;9.75;60.23
38780;BME280;29273;49.962;9.768;2024-03-06T05:09:55;100007.69;;;9.77;60.25
38780;BME280;29273;49.962;9.768;2024-03-06T05:12:23;100001.41;;;9.78;60.26
38780;BME280;29273;49.962;9.768;2024-03-06T05:14:49;100008.16;;;9.81;60.33
38780;BME280;29273;49.962;9.768;2024-03-06T05:17:14;100006.31;;;9.81;60.34
38780;BME280;29273;49.962;9.768;2024-03-06T05:19:40;100013.03;;;9.84;60.25
38780;BME280;29273;49.962;9.768;2024-03-06T05:22:05;100011.22;;;9.85;60.57
38780;BME280;29273;49.962;9.768;2024-03-06T05:24:30;100005.56;;;9.88;60.31
38780;BME280;29273;49.962;9.768;2024-03-06T05:26:56;100003.72;;;9.88;60.33
38780;BME280;29273;49.962;9.768;2024-03-06T05:29:21;100005.38;;;9.89;60.46
38780;BME280;29273;49.962;9.768;2024-03-06T05:31:47;100008.00;;;9.89;60.07
38780;BME280;29273;49.962;9.768;2024-03-06T05:34:12;100013.09;;;9.91;60.53
38780;BME280;29273;49.962;9.768;2024-03-06T05:36:38;100013.94;;;9.91;60.35
38780;BME280;29273;49.962;9.768;2024-03-06T05:39:03;100019.03;;;9.93;60.29
38780;BME280;29273;49.962;9.768;2024-03-06T05:41:41;100018.66;;;9.96;60.02
38780;BME280;29273;49.962;9.768;2024-03-06T05:44:07;100022.09;;;9.96;60.45
38780;BME280;29273;49.962;9.768;2024-03-06T05:46:33;100019.47;;;9.96;60.42
38780;BME280;29273;49.962;9.768;2024-03-06T05:48:59;100019.25;;;9.98;60.31
38780;BME280;29273;49.962;9.768;2024-03-06T05:51:24;100026.38;;;9.97;60.14
38780;BME280;29273;49.962;9.768;2024-03-06T05:53:50;100023.53;;;9.99;60.13
38780;BME280;29273;49.962;9.768;2024-03-06T05:56:17;100025.97;;;10.00;59.83
38780;BME280;29273;49.962;9.768;2024-03-06T05:58:43;100030.66;;;9.98;60.21
38780;BME280;29273;49.962;9.768;2024-03-06T06:01:13;100032.50;;;9.98;59.95
38780;BME280;29273;49.962;9.768;2024-03-06T06:03:41;100037.97;;;9.96;60.11
38780;BME280;29273;49.962;9.768;2024-03-06T06:06:07;100044.25;;;9.95;60.02
38780;BME280;29273;49.962;9.768;2024-03-06T06:08:34;100040.00;;;9.94;60.13
38780;BME280;29273;49.962;9.768;2024-03-06T06:11:01;100046.91;;;9.95;59.78
38780;BME280;29273;49.962;9.768;2024-03-06T06:13:28;100045.66;;;9.91;60.19
38780;BME280;29273;49.962;9.768;2024-03-06T06:15:54;100042.41;;;9.89;60.23
38780;BME280;29273;49.962;9.768;2024-03-06T06:18:19;100046.03;;;9.88;60.36
38780;BME280;29273;49.962;9.768;2024-03-06T06:20:45;100047.88;;;9.88;60.44
38780;BME280;29273;49.962;9.768;2024-03-06T06:23:11;100054.59;;;9.90;60.44
38780;BME280;29273;49.962;9.768;2024-03-06T06:25:36;100058.28;;;9.89;60.60
38780;BME280;29273;49.962;9.768;2024-03-06T06:28:01;100070.28;;;9.92;60.59
38780;BME280;29273;49.962;9.768;2024-03-06T06:30:27;100066.66;;;9.93;60.55
38780;BME280;29273;49.962;9.768;2024-03-06T06:32:52;100066.47;;;9.94;60.46
38780;BME280;29273;49.962;9.768;2024-03-06T06:35:18;100062.78;;;9.95;60.65
38780;BME280;29273;49.962;9.768;2024-03-06T06:37:43;100066.03;;;9.97;60.42
38780;BME280;29273;49.962;9.768;2024-03-06T06:40:09;100064.06;;;9.99;60.46
38780;BME280;29273;49.962;9.768;2024-03-06T06:42:35;100065.66;;;10.00;60.21
38780;BME280;29273;49.962;9.768;2024-03-06T06:45:04;100063.88;;;10.01;60.20
38780;BME280;29273;49.962;9.768;2024-03-06T06:47:31;100066.50;;;10.01;60.08
38780;BME280;29273;49.962;9.768;2024-03-06T06:49:57;100064.88;;;10.00;60.25
38780;BME280;29273;49.962;9.768;2024-03-06T06:52:22;100075.25;;;10.02;60.41
38780;BME280;29273;49.962;9.768;2024-03-06T06:54:48;100074.25;;;10.03;60.44
38780;BME280;29273;49.962;9.768;2024-03-06T06:57:15;100074.25;;;10.03;60.38
38780;BME280;29273;49.962;9.768;2024-03-06T06:59:40;100078.53;;;10.04;60.39
38780;BME280;29273;49.962;9.768;2024-03-06T07:02:06;100087.28;;;10.04;60.43
38780;BME280;29273;49.962;9.768;2024-03-06T07:04:31;100085.66;;;10.03;60.47
38780;BME280;29273;49.962;9.768;2024-03-06T07:06:57;100082.81;;;10.05;60.61
38780;BME280;29273;49.962;9.768;2024-03-06T07:09:22;100088.91;;;10.05;60.61
38780;BME280;29273;49.962;9.768;2024-03-06T07:11:48;100083.25;;;10.08;60.93
38780;BME280;29273;49.962;9.768;2024-03-06T07:14:14;100090.00;;;10.11;60.90
38780;BME280;29273;49.962;9.768;2024-03-06T07:16:43;100100.22;;;10.21;60.59
38780;BME280;29273;49.962;9.768;2024-03-06T07:19:09;100097.16;;;10.17;60.63
38780;BME280;29273;49.962;9.768;2024-03-06T07:21:35;100101.88;;;10.22;60.79
38780;BME280;29273;49.962;9.768;2024-03-06T07:24:01;100098.84;;;10.25;60.63
38780;BME280;29273;49.962;9.768;2024-03-06T07:26:26;100107.41;;;10.27;60.61
38780;BME280;29273;49.962;9.768;2024-03-06T07:28:55;100105.19;;;10.30;60.66
38780;BME280;29273;49.962;9.768;2024-03-06T07:31:21;100106.50;;;10.34;60.84
38780;BME280;29273;49.962;9.768;2024-03-06T07:33:46;100107.13;;;10.36;60.90
38780;BME280;29273;49.962;9.768;2024-03-06T07:36:11;100105.88;;;10.39;61.08
38780;BME280;29273;49.962;9.768;2024-03-06T07:38:37;100107.97;;;10.44;60.79
38780;BME280;29273;49.962;9.768;2024-03-06T07:41:03;100111.22;;;10.46;60.85
38780;BME280;29273;49.962;9.768;2024-03-06T07:43:28;100113.50;;;10.49;60.87
38780;BME280;29273;49.962;9.768;2024-03-06T07:45:53;100114.97;;;10.51;61.19
38780;BME280;29273;49.962;9.768;2024-03-06T07:48:19;100122.53;;;10.54;60.88
38780;BME280;29273;49.962;9.768;2024-03-06T07:50:45;100124.59;;;10.59;61.05
38780;BME280;29273;49.962;9.768;2024-03-06T07:53:10;100122.56;;;10.61;60.94
38780;BME280;29273;49.962;9.768;2024-03-06T07:55:36;100123.97;;;10.64;60.80
38780;BME280;29273;49.962;9.768;2024-03-06T07:58:01;100122.78;;;10.66;60.78
38780;BME280;29273;49.962;9.768;2024-03-06T08:00:26;100128.50;;;10.70;60.92
38780;BME280;29273;49.962;9.768;2024-03-06T08:02:52;100128.13;;;10.73;60.81
38780;BME280;29273;49.962;9.768;2024-03-06T08:05:18;100122.66;;;10.74;60.73
38780;BME280;29273;49.962;9.768;2024-03-06T08:07:43;100129.78;;;10.81;60.61
38780;BME280;29273;49.962;9.768;2024-03-06T08:10:11;100129.81;;;10.87;60.47
38780;BME280;29273;49.962;9.768;2024-03-06T08:12:41;100131.47;;;10.88;60.35
38780;BME280;29273;49.962;9.768;2024-03-06T08:15:08;100127.22;;;10.94;60.48
38780;BME280;29273;49.962;9.768;2024-03-06T08:17:35;100127.84;;;10.96;60.43
38780;BME280;29273;49.962;9.768;2024-03-06T08:20:02;100141.53;;;11.00;59.95
38780;BME280;29273;49.962;9.768;2024-03-06T08:22:40;100134.63;;;11.05;59.95
38780;BME280;29273;49.962;9.768;2024-03-06T08:25:10;100139.91;;;11.05;60.14
38780;BME280;29273;49.962;9.768;2024-03-06T08:27:37;100139.53;;;11.08;60.24
38780;BME280;29273;49.962;9.768;2024-03-06T08:30:07;100149.34;;;11.15;60.14
38780;BME280;29273;49.962;9.768;2024-03-06T08:32:34;100153.19;;;11.12;59.88
38780;BME280;29273;49.962;9.768;2024-03-06T08:35:08;100153.88;;;11.21;59.60
38780;BME280;29273;49.962;9.768;2024-03-06T08:37:41;100153.66;;;11.22;59.65
38780;BME280;29273;49.962;9.768;2024-03-06T08:40:07;100153.03;;;11.20;59.64
38780;BME280;29273;49.962;9.768;2024-03-06T08:42:35;100157.13;;;11.23;59.76
38780;BME280;29273;49.962;9.768;2024-03-06T08:45:01;100161.00;;;11.27;60.05
38780;BME280;29273;49.962;9.768;2024-03-06T08:47:27;100163.88;;;11.32;59.90
38780;BME280;29273;49.962;9.768;2024-03-06T08:49:53;100170.66;;;11.35;59.53
38780;BME280;29273;49.962;9.768;2024-03-06T08:52:19;100167.22;;;11.41;59.82
38780;BME280;29273;49.962;9.768;2024-03-06T08:54:46;100167.81;;;11.43;60.20
38780;BME280;29273;49.962;9.768;2024-03-06T08:57:12;100174.34;;;11.47;59.68
38780;BME280;29273;49.962;9.768;2024-03-06T08:59:38;100171.13;;;11.52;59.44
38780;BME280;29273;49.962;9.768;2024-03-06T09:02:17;100178.09;;;11.59;59.46
38780;BME280;29273;49.962;9.768;2024-03-06T09:04:44;100173.19;;;11.56;59.56
38780;BME280;29273;49.962;9.768;2024-03-06T09:07:10;100167.47;;;11.59;59.25
38780;BME280;29273;49.962;9.768;2024-03-06T09:09:36;100162.59;;;11.63;59.25
38780;BME280;29273;49.962;9.768;2024-03-06T09:12:09;100163.41;;;11.70;59.18
38780;BME280;29273;49.962;9.768;2024-03-06T09:14:39;100168.09;;;11.68;59.02
38780;BME280;29273;49.962;9.768;2024-03-06T09:17:05;100163.41;;;11.70;58.91
38780;BME280;29273;49.962;9.768;2024-03-06T09:19:32;100169.97;;;11.74;59.10
38780;BME280;29273;49.962;9.768;2024-03-06T09:21:58;100182.19;;;11.75;59.21
38780;BME280;29273;49.962;9.768;2024-03-06T09:24:24;100174.25;;;11.75;59.08
38780;BME280;29273;49.962;9.768;2024-03-06T09:26:50;100188.34;;;11.76;58.86
38780;BME280;29273;49.962;9.768;2024-03-06T09:29:16;100190.78;;;11.77;58.90
38780;BME280;29273;49.962;9.768;2024-03-06T09:31:42;100195.88;;;11.79;58.86
38780;BME280;29273;49.962;9.768;2024-03-06T09:34:08;100198.34;;;11.80;58.93
38780;BME280;29273;49.962;9.768;2024-03-06T09:36:49;100190.59;;;11.85;58.66
38780;BME280;29273;49.962;9.768;2024-03-06T09:39:15;100203.44;;;11.82;58.55
38780;BME280;29273;49.962;9.768;2024-03-06T09:41:50;100194.06;;;11.79;58.63
38780;BME280;29273;49.962;9.768;2024-03-06T09:44:17;100204.28;;;11.82;58.89
38780;BME280;29273;49.962;9.768;2024-03-06T09:46:48;100204.50;;;11.88;58.99
38780;BME280;29273;49.962;9.768;2024-03-06T09:49:15;100204.09;;;11.84;58.92
38780;BME280;29273;49.962;9.768;2024-03-06T09:51:48;100206.97;;;11.89;59.03
38780;BME280;29273;49.962;9.768;2024-03-06T09:54:16;100210.81;;;11.87;59.05
38780;BME280;29273;49.962;9.768;2024-03-06T09:56:45;100209.22;;;11.92;59.07
38780;BME280;29273;49.962;9.768;2024-03-06T09:59:11;100209.63;;;11.89;58.66
38780;BME280;29273;49.962;9.768;2024-03-06T10:01:40;100215.78;;;11.96;58.57
38780;BME280;29273;49.962;9.768;2024-03-06T10:04:26;100211.06;;;11.98;58.62
38780;BME280;29273;49.962;9.768;2024-03-06T10:06:59;100208.84;;;12.02;58.78
38780;BME280;29273;49.962;9.768;2024-03-06T10:09:25;100211.88;;;11.99;58.24
38780;BME280;29273;49.962;9.768;2024-03-06T10:11:51;100215.78;;;12.03;58.66
38780;BME280;29273;49.962;9.768;2024-03-06T10:14:22;100218.06;;;12.06;58.56
38780;BME280;29273;49.962;9.768;2024-03-06T10:16:55;100217.03;;;12.14;58.70
38780;BME280;29273;49.962;9.768;2024-03-06T10:19:28;100217.22;;;12.19;58.37
38780;BME280;29273;49.962;9.768;2024-03-06T10:21:55;100217.22;;;12.19;58.14
38780;BME280;29273;49.962;9.768;2024-03-06T10:24:28;100217.03;;;12.27;58.53
38780;BME280;29273;49.962;9.768;2024-03-06T10:26:55;100224.78;;;12.09;59.42
38780;BME280;29273;49.962;9.768;2024-03-06T10:29:22;100220.53;;;12.28;58.28
38780;BME280;29273;49.962;9.768;2024-03-06T10:34:26;100228.13;;;12.44;58.34
38780;BME280;29273;49.962;9.768;2024-03-06T10:37:01;100232.59;;;12.50;58.55
38780;BME280;29273;49.962;9.768;2024-03-06T10:39:30;100229.13;;;12.50;57.94
38780;BME280;29273;49.962;9.768;2024-03-06T10:42:01;100235.66;;;12.54;57.87
38780;BME280;29273;49.962;9.768;2024-03-06T10:44:27;100230.13;;;12.55;57.55
38780;BME280;29273;49.962;9.768;2024-03-06T10:47:02;100228.31;;;12.63;57.58
38780;BME280;29273;49.962;9.768;2024-03-06T10:49:29;100228.72;;;12.59;57.13
38780;BME280;29273;49.962;9.768;2024-03-06T10:52:04;100228.72;;;12.66;57.81
38780;BME280;29273;49.962;9.768;2024-03-06T10:54:32;100222.81;;;12.64;57.38
38780;BME280;29273;49.962;9.768;2024-03-06T10:57:00;100229.53;;;12.67;57.60
38780;BME280;29273;49.962;9.768;2024-03-06T10:59:27;100229.94;;;12.70;57.65
38780;BME280;29273;49.962;9.768;2024-03-06T11:01:57;100223.81;;;12.70;57.19
38780;BME280;29273;49.962;9.768;2024-03-06T11:04:26;100229.13;;;12.76;57.08
38780;BME280;29273;49.962;9.768;2024-03-06T11:06:59;100240.34;;;12.78;56.88
38780;BME280;29273;49.962;9.768;2024-03-06T11:09:37;100236.47;;;12.88;57.63
38780;BME280;29273;49.962;9.768;2024-03-06T11:12:06;100232.38;;;12.85;57.16
38780;BME280;29273;49.962;9.768;2024-03-06T11:14:38;100230.34;;;12.94;57.30
38780;BME280;29273;49.962;9.768;2024-03-06T11:17:05;100243.41;;;12.95;56.86
38780;BME280;29273;49.962;9.768;2024-03-06T11:28:14;100234.41;;;13.10;56.90
38780;BME280;29273;49.962;9.768;2024-03-06T11:31:01;100230.72;;;13.18;57.68
38780;BME280;29273;49.962;9.768;2024-03-06T11:33:44;100232.09;;;13.27;57.70
38780;BME280;29273;49.962;9.768;2024-03-06T11:36:28;100228.00;;;13.31;57.56
38780;BME280;29273;49.962;9.768;2024-03-06T11:38:58;100232.09;;;13.40;56.88
38780;BME280;29273;49.962;9.768;2024-03-06T11:41:29;100227.38;;;13.49;56.72
38780;BME280;29273;49.962;9.768;2024-03-06T11:43:56;100228.78;;;13.51;55.68
38780;BME280;29273;49.962;9.768;2024-03-06T11:46:23;100228.97;;;13.57;55.55
38780;BME280;29273;49.962;9.768;2024-03-06T11:49:17;100222.19;;;13.67;56.85
38780;BME280;29273;49.962;9.768;2024-03-06T11:51:46;100221.56;;;13.65;55.55
38780;BME280;29273;49.962;9.768;2024-03-06T11:54:13;100224.41;;;13.71;55.72
38780;BME280;29273;49.962;9.768;2024-03-06T11:56:45;100217.00;;;13.79;56.29
38780;BME280;29273;49.962;9.768;2024-03-06T11:59:12;100219.06;;;13.77;55.11
38780;BME280;29273;49.962;9.768;2024-03-06T12:01:38;100217.00;;;13.79;54.64
38780;BME280;29273;49.962;9.768;2024-03-06T12:04:04;100216.38;;;13.84;54.90
38780;BME280;29273;49.962;9.768;2024-03-06T12:06:32;100214.91;;;13.88;54.87
38780;BME280;29273;49.962;9.768;2024-03-06T12:08:58;100219.59;;;13.93;55.16
38780;BME280;29273;49.962;9.768;2024-03-06T12:11:24;100212.00;;;13.96;54.47
38780;BME280;29273;49.962;9.768;2024-03-06T12:13:54;100219.34;;;14.01;54.64
38780;BME280;29273;49.962;9.768;2024-03-06T12:16:19;100224.84;;;14.06;54.57
38780;BME280;29273;49.962;9.768;2024-03-06T12:18:46;100214.56;;;14.10;54.55
38780;BME280;29273;49.962;9.768;2024-03-06T12:21:12;100213.94;;;14.14;54.80
38780;BME280;29273;49.962;9.768;2024-03-06T12:23:39;100216.56;;;14.21;54.92
38780;BME280;29273;49.962;9.768;2024-03-06T12:26:09;100223.91;;;14.25;53.73
38780;BME280;29273;49.962;9.768;2024-03-06T12:28:39;100226.53;;;14.32;54.75
38780;BME280;29273;49.962;9.768;2024-03-06T12:31:05;100223.84;;;14.32;54.06
38780;BME280;29273;49.962;9.768;2024-03-06T12:33:33;100230.00;;;14.33;53.69
38780;BME280;29273;49.962;9.768;2024-03-06T12:36:08;100228.13;;;14.33;53.23
38780;BME280;29273;49.962;9.768;2024-03-06T12:38:36;100229.56;;;14.36;53.20
38780;BME280;29273;49.962;9.768;2024-03-06T12:41:02;100225.84;;;14.37;53.72
38780;BME280;29273;49.962;9.768;2024-03-06T12:43:28;100232.03;;;14.37;53.30
38780;BME280;29273;49.962;9.768;2024-03-06T12:45:56;100233.03;;;14.36;53.38
38780;BME280;29273;49.962;9.768;2024-03-06T12:48:23;100233.03;;;14.36;53.31
38780;BME280;29273;49.962;9.768;2024-03-06T12:50:49;100228.72;;;14.35;53.70
38780;BME280;29273;49.962;9.768;2024-03-06T12:53:22;100232.41;;;14.41;54.22
38780;BME280;29273;49.962;9.768;2024-03-06T12:55:48;100233.25;;;14.35;53.24
38780;BME280;29273;49.962;9.768;2024-03-06T12:58:13;100224.25;;;14.36;52.96
38780;BME280;29273;49.962;9.768;2024-03-06T13:00:39;100217.66;;;14.38;52.61
38780;BME280;29273;49.962;9.768;2024-03-06T13:03:05;100221.94;;;14.39;52.71
38780;BME280;29273;49.962;9.768;2024-03-06T13:05:31;100229.53;;;14.42;53.11